sensor_id;sensor_type;location;lat;lon;timestamp;pressure;altitude;pressure_sealevel;temperature;humidity
39739;BME280;25422;48.286;8.484;2022-10-16T00:01:18;94031.47;;;11.53;100.00
39739;BME280;25422;48.286;8.484;2022-10-16T00:03:45;94029.72;;;11.45;100.00
39739;BME280;25422;48.286;8.484;2022-10-16T00:06:11;94029.63;;;11.39;100.00
39739;BME280;25422;48.286;8.484;2022-10-16T00:08:37;94028.66;;;11.40;100.00
39739;BME280;25422;48.286;8.484;2022-10-16T00:11:15;94036.41;;;11.33;100.00
39739;BME280;25422;48.286;8.484;2022-10-16T00:13:41;94018.75;;;11.27;100.00
39739;BME280;25422;48.286;8.484;2022-10-16T00:16:08;94021.28;;;11.20;100.00
39739;BME280;25422;48.286;8.484;2022-10-16T00:18:34;94022.44;;;11.18;100.00
39739;BME280;25422;48.286;8.484;2022-10-16T00:21:04;94026.88;;;11.17;100.00
39739;BME280;25422;48.286;8.484;2022-10-16T00:23:31;94022.53;;;11.24;100.00
39739;BME280;25422;48.286;8.484;2022-10-16T00:25:59;94018.69;;;11.35;100.00
39739;BME280;25422;48.286;8.484;2022-10-16T00:28:25;94020.25;;;11.44;100.00
39739;BME280;25422;48.286;8.484;2022-10-16T00:30:51;94023.94;;;11.50;100.00
39739;BME280;25422;48.286;8.484;2022-10-16T00:33:17;94017.72;;;11.51;100.00
39739;BME280;25422;48.286;8.484;2022-10-16T00:35:42;94024.50;;;11.45;100.00
39739;BME280;25422;48.286;8.484;2022-10-16T00:38:08;94025.91;;;11.33;100.00
39739;BME280;25422;48.286;8.484;2022-10-16T00:40:34;94027.88;;;11.31;100.00
39739;BME280;25422;48.286;8.484;2022-10-16T00:42:59;94028.06;;;11.29;100.00
39739;BME280;25422;48.286;8.484;2022-10-16T00:45:24;94031.34;;;11.32;100.00
39739;BME280;25422;48.286;8.484;2022-10-16T00:47:52;94029.34;;;11.34;100.00
39739;BME280;25422;48.286;8.484;2022-10-16T00:50:27;94034.25;;;11.37;100.00
39739;BME280;25422;48.286;8.484;2022-10-16T00:52:54;94029.53;;;11.32;100.00
39739;BME280;25422;48.286;8.484;2022-10-16T00:55:20;94029.25;;;11.27;100.00
39739;BME280;25422;48.286;8.484;2022-10-16T00:57:46;94023.38;;;11.25;100.00
39739;BME280;25422;48.286;8.484;2022-10-16T01:00:15;94026.50;;;11.20;100.00
39739;BME280;25422;48.286;8.484;2022-10-16T01:02:41;94024.16;;;11.10;100.00
39739;BME280;25422;48.286;8.484;2022-10-16T01:05:07;94027.94;;;11.08;100.00
39739;BME280;25422;48.286;8.484;2022-10-16T01:07:56;94032.19;;;11.09;100.00
39739;BME280;25422;48.286;8.484;2022-10-16T01:13:00;94033.75;;;11.18;100.00
39739;BME280;25422;48.286;8.484;2022-10-16T01:15:48;94033.56;;;11.20;100.00
39739;BME280;25422;48.286;8.484;2022-10-16T01:18:30;94038.81;;;11.20;100.00
39739;BME280;25422;48.286;8.484;2022-10-16T01:21:11;94036.97;;;11.20;100.00
39739;BME280;25422;48.286;8.484;2022-10-16T01:29:30;94050.72;;;11.22;100.00
39739;BME280;25422;48.286;8.484;2022-10-16T01:32:01;94043.69;;;11.23;100.00
39739;BME280;25422;48.286;8.484;2022-10-16T01:34:44;94041.72;;;11.25;100.00
39739;BME280;25422;48.286;8.484;2022-10-16T01:37:15;94039.53;;;11.28;100.00
39739;BME280;25422;48.286;8.484;2022-10-16T01:39:47;94041.56;;;11.41;100.00
39739;BME280;25422;48.286;8.484;2022-10-16T01:42:21;94045.44;;;11.45;100.00
39739;BME280;25422;48.286;8.484;2022-10-16T01:44:48;94043.81;;;11.44;100.00
39739;BME280;25422;48.286;8.484;2022-10-16T01:47:15;94046.00;;;11.41;100.00
39739;BME280;25422;48.286;8.484;2022-10-16T01:49:42;94042.09;;;11.37;100.00
39739;BME280;25422;48.286;8.484;2022-10-16T01:52:13;94050.19;;;11.27;100.00
39739;BME280;25422;48.286;8.484;2022-10-16T01:54:42;94049.03;;;11.29;100.00
39739;BME280;25422;48.286;8.484;2022-10-16T01:57:10;94048.03;;;11.30;100.00
39739;BME280;25422;48.286;8.484;2022-10-16T01:59:43;94043.28;;;11.34;100.00
39739;BME280;25422;48.286;8.484;2022-10-16T02:02:10;94045.53;;;11.37;100.00
39739;BME280;25422;48.286;8.484;2022-10-16T02:04:49;94050.22;;;11.42;100.00
39739;BME280;25422;48.286;8.484;2022-10-16T02:07:16;94043.31;;;11.49;100.00
39739;BME280;25422;48.286;8.484;2022-10-16T02:09:42;94036.34;;;11.56;100.00
39739;BME280;25422;48.286;8.484;2022-10-16T02:12:14;94045.09;;;11.63;100.00
39739;BME280;25422;48.286;8.484;2022-10-16T02:14:41;94039.97;;;11.70;100.00
39739;BME280;25422;48.286;8.484;2022-10-16T02:17:15;94045.84;;;11.72;100.00
39739;BME280;25422;48.286;8.484;2022-10-16T02:19:42;94047.72;;;11.63;100.00
39739;BME280;25422;48.286;8.484;2022-10-16T02:22:33;94049.91;;;11.60;100.00
39739;BME280;25422;48.286;8.484;2022-10-16T02:25:17;94044.81;;;11.58;100.00
39739;BME280;25422;48.286;8.484;2022-10-16T02:27:51;94031.91;;;11.57;100.00
39739;BME280;25422;48.286;8.484;2022-10-16T02:30:22;94036.34;;;11.56;100.00
39739;BME280;25422;48.286;8.484;2022-10-16T02:32:51;94037.69;;;11.52;100.00
39739;BME280;25422;48.286;8.484;2022-10-16T02:35:18;94043.75;;;11.53;100.00
39739;BME280;25422;48.286;8.484;2022-10-16T02:37:46;94041.59;;;11.56;100.00
39739;BME280;25422;48.286;8.484;2022-10-16T02:40:13;94052.25;;;11.55;100.00
39739;BME280;25422;48.286;8.484;2022-10-16T02:42:40;94049.25;;;11.58;100.00
39739;BME280;25422;48.286;8.484;2022-10-16T02:45:08;94043.84;;;11.59;100.00
39739;BME280;25422;48.286;8.484;2022-10-16T02:47:34;94046.47;;;11.59;100.00
39739;BME280;25422;48.286;8.484;2022-10-16T02:49:59;94051.09;;;11.57;100.00
39739;BME280;25422;48.286;8.484;2022-10-16T02:52:25;94052.44;;;11.53;100.00
39739;BME280;25422;48.286;8.484;2022-10-16T02:54:51;94049.91;;;11.60;100.00
39739;BME280;25422;48.286;8.484;2022-10-16T02:57:17;94054.50;;;11.58;100.00
39739;BME280;25422;48.286;8.484;2022-10-16T02:59:43;94058.56;;;11.60;100.00
39739;BME280;25422;48.286;8.484;2022-10-16T03:02:09;94058.75;;;11.59;100.00
39739;BME280;25422;48.286;8.484;2022-10-16T03:04:34;94048.91;;;11.61;100.00
39739;BME280;25422;48.286;8.484;2022-10-16T03:06:59;94058.38;;;11.62;100.00
39739;BME280;25422;48.286;8.484;2022-10-16T03:09:25;94058.22;;;11.63;100.00
39739;BME280;25422;48.286;8.484;2022-10-16T03:11:50;94050.72;;;11.60;100.00
39739;BME280;25422;48.286;8.484;2022-10-16T03:14:17;94048.00;;;11.54;100.00
39739;BME280;25422;48.286;8.484;2022-10-16T03:16:42;94049.16;;;11.51;100.00
39739;BME280;25422;48.286;8.484;2022-10-16T03:19:08;94056.28;;;11.42;100.00
39739;BME280;25422;48.286;8.484;2022-10-16T03:21:33;94051.84;;;11.43;100.00
39739;BME280;25422;48.286;8.484;2022-10-16T03:23:58;94061.25;;;11.37;100.00
39739;BME280;25422;48.286;8.484;2022-10-16T03:26:24;94056.56;;;11.47;100.00
39739;BME280;25422;48.286;8.484;2022-10-16T03:28:49;94054.75;;;11.48;100.00
39739;BME280;25422;48.286;8.484;2022-10-16T03:31:15;94057.19;;;11.50;100.00
39739;BME280;25422;48.286;8.484;2022-10-16T03:33:40;94053.78;;;11.49;100.00
39739;BME280;25422;48.286;8.484;2022-10-16T03:36:06;94051.97;;;11.50;100.00
39739;BME280;25422;48.286;8.484;2022-10-16T03:38:32;94055.03;;;11.53;100.00
39739;BME280;25422;48.286;8.484;2022-10-16T03:40:57;94061.09;;;11.54;100.00
39739;BME280;25422;48.286;8.484;2022-10-16T03:43:22;94054.69;;;11.56;100.00
39739;BME280;25422;48.286;8.484;2022-10-16T03:45:50;94054.50;;;11.58;100.00
39739;BME280;25422;48.286;8.484;2022-10-16T03:48:15;94052.53;;;11.60;100.00
39739;BME280;25422;48.286;8.484;2022-10-16T03:50:41;94056.59;;;11.62;100.00
39739;BME280;25422;48.286;8.484;2022-10-16T03:53:06;94051.38;;;11.62;100.00
39739;BME280;25422;48.286;8.484;2022-10-16T03:55:32;94056.94;;;11.59;100.00
39739;BME280;25422;48.286;8.484;2022-10-16T03:57:57;94045.75;;;11.66;100.00
39739;BME280;25422;48.286;8.484;2022-10-16T04:00:22;94056.94;;;11.59;100.00
39739;BME280;25422;48.286;8.484;2022-10-16T04:02:48;94055.59;;;11.63;100.00
39739;BME280;25422;48.286;8.484;2022-10-16T04:05:13;94054.13;;;11.61;100.00
39739;BME280;25422;48.286;8.484;2022-10-16T04:07:39;94057.31;;;11.56;100.00
39739;BME280;25422;48.286;8.484;2022-10-16T04:10:04;94058.09;;;11.57;100.00
39739;BME280;25422;48.286;8.484;2022-10-16T04:12:30;94058.84;;;11.51;100.00
39739;BME280;25422;48.286;8.484;2022-10-16T04:14:56;94056.22;;;11.51;100.00
39739;BME280;25422;48.286;8.484;2022-10-16T04:17:21;94062.06;;;11.53;100.00
39739;BME280;25422;48.286;8.484;2022-10-16T04:19:46;94064.69;;;11.53;100.00
39739;BME280;25422;48.286;8.484;2022-10-16T04:22:12;94071.28;;;11.48;100.00
39739;BME280;25422;48.286;8.484;2022-10-16T04:24:37;94073.56;;;11.52;100.00
39739;BME280;25422;48.286;8.484;2022-10-16T04:27:03;94070.00;;;11.44;100.00
39739;BME280;25422;48.286;8.484;2022-10-16T04:29:28;94073.34;;;11.38;100.00
39739;BME280;25422;48.286;8.484;2022-10-16T04:31:54;94083.19;;;11.36;100.00
39739;BME280;25422;48.286;8.484;2022-10-16T04:34:19;94086.16;;;11.33;100.00
39739;BME280;25422;48.286;8.484;2022-10-16T04:36:47;94084.16;;;11.35;100.00
39739;BME280;25422;48.286;8.484;2022-10-16T04:39:13;94077.94;;;11.36;100.00
39739;BME280;25422;48.286;8.484;2022-10-16T04:41:39;94072.69;;;11.36;100.00
39739;BME280;25422;48.286;8.484;2022-10-16T04:44:04;94075.97;;;11.38;100.00
39739;BME280;25422;48.286;8.484;2022-10-16T04:46:30;94079.22;;;11.40;100.00
39739;BME280;25422;48.286;8.484;2022-10-16T04:48:55;94072.81;;;11.43;100.00
39739;BME280;25422;48.286;8.484;2022-10-16T04:51:20;94077.94;;;11.36;100.00
39739;BME280;25422;48.286;8.484;2022-10-16T04:53:46;94079.81;;;11.27;100.00
39739;BME280;25422;48.286;8.484;2022-10-16T04:56:11;94082.78;;;11.24;100.00
39739;BME280;25422;48.286;8.484;2022-10-16T04:58:37;94078.66;;;11.30;100.00
39739;BME280;25422;48.286;8.484;2022-10-16T05:01:02;94071.78;;;11.29;100.00
39739;BME280;25422;48.286;8.484;2022-10-16T05:03:28;94077.03;;;11.29;100.00
39739;BME280;25422;48.286;8.484;2022-10-16T05:05:53;94079.81;;;11.27;100.00
39739;BME280;25422;48.286;8.484;2022-10-16T05:08:18;94080.09;;;11.33;100.00
39739;BME280;25422;48.286;8.484;2022-10-16T05:10:44;94081.22;;;11.38;100.00
39739;BME280;25422;48.286;8.484;2022-10-16T05:13:10;94077.13;;;11.36;100.00
39739;BME280;25422;48.286;8.484;2022-10-16T05:15:36;94082.13;;;11.45;100.00
39739;BME280;25422;48.286;8.484;2022-10-16T05:18:01;94087.09;;;11.55;100.00
39739;BME280;25422;48.286;8.484;2022-10-16T05:20:27;94083.25;;;11.66;100.00
39739;BME280;25422;48.286;8.484;2022-10-16T05:22:53;94084.06;;;11.67;100.00
39739;BME280;25422;48.286;8.484;2022-10-16T05:25:18;94089.38;;;11.73;100.00
39739;BME280;25422;48.286;8.484;2022-10-16T05:27:47;94088.88;;;11.78;100.00
39739;BME280;25422;48.286;8.484;2022-10-16T05:30:13;94091.97;;;11.81;100.00
39739;BME280;25422;48.286;8.484;2022-10-16T05:32:38;94092.75;;;11.82;100.00
39739;BME280;25422;48.286;8.484;2022-10-16T05:35:04;94097.81;;;11.84;100.00
39739;BME280;25422;48.286;8.484;2022-10-16T05:37:30;94098.19;;;11.80;100.00
39739;BME280;25422;48.286;8.484;2022-10-16T05:39:55;94093.94;;;11.79;100.00
39739;BME280;25422;48.286;8.484;2022-10-16T05:42:21;94105.22;;;11.80;100.00
39739;BME280;25422;48.286;8.484;2022-10-16T05:44:46;94099.72;;;11.75;100.00
39739;BME280;25422;48.286;8.484;2022-10-16T05:47:15;94098.44;;;11.71;100.00
39739;BME280;25422;48.286;8.484;2022-10-16T05:49:40;94100.31;;;11.62;100.00
39739;BME280;25422;48.286;8.484;2022-10-16T05:52:05;94110.81;;;11.62;100.00
39739;BME280;25422;48.286;8.484;2022-10-16T05:54:31;94115.06;;;11.63;100.00
39739;BME280;25422;48.286;8.484;2022-10-16T05:56:57;94115.84;;;11.63;100.00
39739;BME280;25422;48.286;8.484;2022-10-16T05:59:22;94108.09;;;11.70;100.00
39739;BME280;25422;48.286;8.484;2022-10-16T06:01:48;94113.72;;;11.67;100.00
39739;BME280;25422;48.286;8.484;2022-10-16T06:04:13;94114.00;;;11.72;100.00
39739;BME280;25422;48.286;8.484;2022-10-16T06:06:38;94115.69;;;11.80;100.00
39739;BME280;25422;48.286;8.484;2022-10-16T06:09:04;94113.72;;;11.82;100.00
39739;BME280;25422;48.286;8.484;2022-10-16T06:11:31;94108.22;;;11.92;100.00
39739;BME280;25422;48.286;8.484;2022-10-16T06:13:59;94120.94;;;12.03;100.00
39739;BME280;25422;48.286;8.484;2022-10-16T06:16:35;94118.38;;;12.10;100.00
39739;BME280;25422;48.286;8.484;2022-10-16T06:19:01;94128.34;;;12.14;100.00
39739;BME280;25422;48.286;8.484;2022-10-16T06:21:27;94131.25;;;12.20;100.00
39739;BME280;25422;48.286;8.484;2022-10-16T06:23:57;94127.91;;;12.26;100.00
39739;BME280;25422;48.286;8.484;2022-10-16T06:26:25;94128.16;;;12.31;100.00
39739;BME280;25422;48.286;8.484;2022-10-16T06:28:50;94127.81;;;12.34;100.00
39739;BME280;25422;48.286;8.484;2022-10-16T06:31:16;94134.88;;;12.34;100.00
39739;BME280;25422;48.286;8.484;2022-10-16T06:33:42;94137.75;;;12.39;100.00
39739;BME280;25422;48.286;8.484;2022-10-16T06:36:11;94142.81;;;12.40;100.00
39739;BME280;25422;48.286;8.484;2022-10-16T06:38:37;94139.91;;;12.50;100.00
39739;BME280;25422;48.286;8.484;2022-10-16T06:41:03;94151.22;;;12.65;100.00
39739;BME280;25422;48.286;8.484;2022-10-16T06:43:30;94160.81;;;12.73;100.00
39739;BME280;25422;48.286;8.484;2022-10-16T06:46:01;94162.25;;;12.76;100.00
39739;BME280;25422;48.286;8.484;2022-10-16T06:48:28;94163.88;;;12.77;100.00
39739;BME280;25422;48.286;8.484;2022-10-16T06:53:23;94175.28;;;12.84;100.00
39739;BME280;25422;48.286;8.484;2022-10-16T06:55:48;94173.53;;;12.91;100.00
39739;BME280;25422;48.286;8.484;2022-10-16T06:58:14;94180.59;;;12.91;100.00
39739;BME280;25422;48.286;8.484;2022-10-16T07:00:39;94186.94;;;12.96;100.00
39739;BME280;25422;48.286;8.484;2022-10-16T07:03:05;94190.38;;;12.97;100.00
39739;BME280;25422;48.286;8.484;2022-10-16T07:05:30;94197.63;;;12.95;100.00
39739;BME280;25422;48.286;8.484;2022-10-16T07:07:56;94202.69;;;12.96;100.00
39739;BME280;25422;48.286;8.484;2022-10-16T07:10:21;94206.38;;;13.02;100.00
39739;BME280;25422;48.286;8.484;2022-10-16T07:12:49;94201.31;;;13.01;100.00
39739;BME280;25422;48.286;8.484;2022-10-16T07:15:15;94203.03;;;13.08;100.00
39739;BME280;25422;48.286;8.484;2022-10-16T07:17:40;94201.47;;;13.14;100.00
39739;BME280;25422;48.286;8.484;2022-10-16T07:20:06;94221.00;;;13.26;100.00
39739;BME280;25422;48.286;8.484;2022-10-16T07:22:31;94221.09;;;13.33;100.00
39739;BME280;25422;48.286;8.484;2022-10-16T07:24:57;94230.59;;;13.34;100.00
39739;BME280;25422;48.286;8.484;2022-10-16T07:27:23;94226.97;;;13.50;100.00
39739;BME280;25422;48.286;8.484;2022-10-16T07:29:49;94227.53;;;13.67;100.00
39739;BME280;25422;48.286;8.484;2022-10-16T07:32:15;94235.56;;;13.80;100.00
39739;BME280;25422;48.286;8.484;2022-10-16T07:34:40;94229.56;;;13.87;100.00
39739;BME280;25422;48.286;8.484;2022-10-16T07:37:06;94229.28;;;14.03;100.00
39739;BME280;25422;48.286;8.484;2022-10-16T07:39:31;94227.19;;;14.20;100.00
39739;BME280;25422;48.286;8.484;2022-10-16T07:41:57;94227.28;;;14.33;100.00
39739;BME280;25422;48.286;8.484;2022-10-16T07:44:22;94225.59;;;14.47;100.00
39739;BME280;25422;48.286;8.484;2022-10-16T07:46:47;94229.06;;;14.55;100.00
39739;BME280;25422;48.286;8.484;2022-10-16T07:49:13;94231.06;;;14.53;100.00
39739;BME280;25422;48.286;8.484;2022-10-16T07:51:38;94237.34;;;14.73;100.00
39739;BME280;25422;48.286;8.484;2022-10-16T07:54:04;94248.91;;;14.79;100.00
39739;BME280;25422;48.286;8.484;2022-10-16T07:56:31;94246.56;;;14.97;100.00
39739;BME280;25422;48.286;8.484;2022-10-16T07:58:57;94260.63;;;15.11;100.00
39739;BME280;25422;48.286;8.484;2022-10-16T08:01:22;94255.72;;;15.08;100.00
39739;BME280;25422;48.286;8.484;2022-10-16T08:03:49;94256.81;;;15.21;100.00
39739;BME280;25422;48.286;8.484;2022-10-16T08:06:16;94262.69;;;15.23;100.00
39739;BME280;25422;48.286;8.484;2022-10-16T08:08:42;94266.97;;;15.24;100.00
39739;BME280;25422;48.286;8.484;2022-10-16T08:11:08;94267.63;;;15.39;100.00
39739;BME280;25422;48.286;8.484;2022-10-16T08:13:34;94271.69;;;15.42;100.00
39739;BME280;25422;48.286;8.484;2022-10-16T08:16:00;94276.13;;;15.34;100.00
39739;BME280;25422;48.286;8.484;2022-10-16T08:18:26;94267.47;;;15.47;100.00
39739;BME280;25422;48.286;8.484;2022-10-16T08:20:59;94273.59;;;15.61;100.00
39739;BME280;25422;48.286;8.484;2022-10-16T08:23:26;94277.38;;;15.87;100.00
39739;BME280;25422;48.286;8.484;2022-10-16T08:25:52;94274.53;;;16.15;100.00
39739;BME280;25422;48.286;8.484;2022-10-16T08:28:19;94296.28;;;16.17;100.00
39739;BME280;25422;48.286;8.484;2022-10-16T08:30:45;94295.06;;;16.27;100.00
39739;BME280;25422;48.286;8.484;2022-10-16T08:33:10;94295.06;;;16.67;100.00
39739;BME280;25422;48.286;8.484;2022-10-16T08:35:36;94301.44;;;18.35;100.00
39739;BME280;25422;48.286;8.484;2022-10-16T08:38:06;94290.53;;;19.57;100.00
39739;BME280;25422;48.286;8.484;2022-10-16T08:40:34;94307.53;;;20.59;100.00
39739;BME280;25422;48.286;8.484;2022-10-16T08:45:53;94287.34;;;22.51;78.32
39739;BME280;25422;48.286;8.484;2022-10-16T08:48:30;94293.72;;;21.92;79.99
39739;BME280;25422;48.286;8.484;2022-10-16T08:51:01;94292.22;;;21.20;85.03
39739;BME280;25422;48.286;8.484;2022-10-16T08:53:30;94300.19;;;21.96;79.84
39739;BME280;25422;48.286;8.484;2022-10-16T08:55:59;94297.75;;;22.23;79.76
39739;BME280;25422;48.286;8.484;2022-10-16T08:58:29;94300.31;;;21.37;81.46
39739;BME280;25422;48.286;8.484;2022-10-16T09:01:01;94296.72;;;20.96;85.27
39739;BME280;25422;48.286;8.484;2022-10-16T09:14:22;94314.78;;;19.60;100.00
39739;BME280;25422;48.286;8.484;2022-10-16T09:17:11;94317.00;;;19.82;94.00
39739;BME280;25422;48.286;8.484;2022-10-16T09:20:00;94308.44;;;19.61;95.18
39739;BME280;25422;48.286;8.484;2022-10-16T09:22:32;94307.78;;;19.10;100.00
39739;BME280;25422;48.286;8.484;2022-10-16T09:25:00;94314.78;;;18.47;100.00
39739;BME280;25422;48.286;8.484;2022-10-16T09:27:30;94317.16;;;17.85;100.00
39739;BME280;25422;48.286;8.484;2022-10-16T09:29:56;94314.25;;;17.48;100.00
39739;BME280;25422;48.286;8.484;2022-10-16T09:32:22;94316.59;;;17.17;100.00
39739;BME280;25422;48.286;8.484;2022-10-16T09:34:50;94319.88;;;16.93;100.00
39739;BME280;25422;48.286;8.484;2022-10-16T09:37:18;94319.47;;;16.76;100.00
39739;BME280;25422;48.286;8.484;2022-10-16T09:39:47;94321.09;;;16.83;100.00
39739;BME280;25422;48.286;8.484;2022-10-16T09:42:39;94328.41;;;16.61;100.00
39739;BME280;25422;48.286;8.484;2022-10-16T09:45:21;94323.94;;;16.55;100.00
39739;BME280;25422;48.286;8.484;2022-10-16T09:47:48;94329.19;;;16.35;100.00
39739;BME280;25422;48.286;8.484;2022-10-16T09:50:27;94329.19;;;16.28;100.00
39739;BME280;25422;48.286;8.484;2022-10-16T09:53:12;94328.16;;;16.23;100.00
39739;BME280;25422;48.286;8.484;2022-10-16T09:55:49;94348.28;;;16.44;100.00
39739;BME280;25422;48.286;8.484;2022-10-16T09:58:15;94340.16;;;16.45;100.00
39739;BME280;25422;48.286;8.484;2022-10-16T10:00:49;94350.34;;;16.55;100.00
39739;BME280;25422;48.286;8.484;2022-10-16T10:03:40;94345.28;;;17.07;100.00
39739;BME280;25422;48.286;8.484;2022-10-16T10:06:16;94352.91;;;17.56;100.00
39739;BME280;25422;48.286;8.484;2022-10-16T10:08:55;94358.34;;;18.19;100.00
39739;BME280;25422;48.286;8.484;2022-10-16T10:11:41;94351.59;;;18.56;100.00
39739;BME280;25422;48.286;8.484;2022-10-16T10:14:17;94347.44;;;18.41;100.00
39739;BME280;25422;48.286;8.484;2022-10-16T10:16:44;94349.38;;;18.52;100.00
39739;BME280;25422;48.286;8.484;2022-10-16T10:19:23;94353.84;;;18.59;100.00
39739;BME280;25422;48.286;8.484;2022-10-16T10:21:50;94340.09;;;19.00;100.00
39739;BME280;25422;48.286;8.484;2022-10-16T10:24:18;94345.06;;;19.52;100.00
39739;BME280;25422;48.286;8.484;2022-10-16T10:29:27;94354.03;;;20.26;96.59
39739;BME280;25422;48.286;8.484;2022-10-16T10:32:18;94356.13;;;20.35;96.76
39739;BME280;25422;48.286;8.484;2022-10-16T10:40:15;94344.25;;;20.80;92.38
39739;BME280;25422;48.286;8.484;2022-10-16T10:43:01;94341.38;;;21.17;88.56
39739;BME280;25422;48.286;8.484;2022-10-16T10:45:41;94347.59;;;21.82;83.81
39739;BME280;25422;48.286;8.484;2022-10-16T10:48:47;94346.25;;;22.09;79.04
39739;BME280;25422;48.286;8.484;2022-10-16T10:56:48;94342.50;;;22.50;72.36
39739;BME280;25422;48.286;8.484;2022-10-16T10:59:47;94343.72;;;22.60;73.06
39739;BME280;25422;48.286;8.484;2022-10-16T11:02:39;94346.91;;;23.07;70.69
39739;BME280;25422;48.286;8.484;2022-10-16T11:08:10;94341.66;;;23.30;68.00
39739;BME280;25422;48.286;8.484;2022-10-16T11:10:53;94340.03;;;23.12;67.10
39739;BME280;25422;48.286;8.484;2022-10-16T11:13:25;94343.44;;;24.02;62.09
39739;BME280;25422;48.286;8.484;2022-10-16T11:15:55;94343.31;;;24.96;58.38
39739;BME280;25422;48.286;8.484;2022-10-16T11:18:35;94335.81;;;24.98;55.81
39739;BME280;25422;48.286;8.484;2022-10-16T11:21:05;94345.84;;;25.13;54.14
39739;BME280;25422;48.286;8.484;2022-10-16T11:23:56;94333.25;;;26.04;50.45
39739;BME280;25422;48.286;8.484;2022-10-16T11:26:49;94336.63;;;25.79;51.54
39739;BME280;25422;48.286;8.484;2022-10-16T11:29:21;94333.84;;;26.12;48.91
39739;BME280;25422;48.286;8.484;2022-10-16T11:31:52;94324.16;;;26.11;50.08
39739;BME280;25422;48.286;8.484;2022-10-16T11:36:58;94330.38;;;24.61;51.48
39739;BME280;25422;48.286;8.484;2022-10-16T11:39:29;94332.84;;;24.13;53.14
39739;BME280;25422;48.286;8.484;2022-10-16T11:42:09;94334.81;;;25.04;50.22
39739;BME280;25422;48.286;8.484;2022-10-16T11:47:44;94329.06;;;23.86;52.44
39739;BME280;25422;48.286;8.484;2022-10-16T11:50:28;94330.38;;;23.45;55.23
39739;BME280;25422;48.286;8.484;2022-10-16T11:53:21;94324.22;;;25.63;48.44
39739;BME280;25422;48.286;8.484;2022-10-16T11:55:49;94330.31;;;25.53;46.31
39739;BME280;25422;48.286;8.484;2022-10-16T11:58:32;94326.56;;;24.79;48.56
39739;BME280;25422;48.286;8.484;2022-10-16T12:03:48;94312.91;;;25.13;49.38
39739;BME280;25422;48.286;8.484;2022-10-16T12:06:37;94314.13;;;24.13;51.59
39739;BME280;25422;48.286;8.484;2022-10-16T12:09:05;94314.16;;;23.90;51.44
39739;BME280;25422;48.286;8.484;2022-10-16T12:11:36;94308.25;;;23.88;51.38
39739;BME280;25422;48.286;8.484;2022-10-16T12:14:20;94315.97;;;24.62;49.40
39739;BME280;25422;48.286;8.484;2022-10-16T12:16:57;94312.78;;;23.66;51.46
39739;BME280;25422;48.286;8.484;2022-10-16T12:19:28;94303.44;;;23.68;51.20
39739;BME280;25422;48.286;8.484;2022-10-16T12:22:00;94316.47;;;24.04;50.75
39739;BME280;25422;48.286;8.484;2022-10-16T12:24:44;94308.16;;;23.83;50.31
39739;BME280;25422;48.286;8.484;2022-10-16T12:27:29;94309.53;;;23.42;50.83
39739;BME280;25422;48.286;8.484;2022-10-16T12:30:00;94305.88;;;23.70;50.50
39739;BME280;25422;48.286;8.484;2022-10-16T12:32:36;94303.75;;;23.72;49.91
39739;BME280;25422;48.286;8.484;2022-10-16T12:35:03;94306.63;;;24.10;49.08
39739;BME280;25422;48.286;8.484;2022-10-16T12:37:37;94307.19;;;23.67;49.99
39739;BME280;25422;48.286;8.484;2022-10-16T12:40:14;94310.66;;;23.46;52.04
39739;BME280;25422;48.286;8.484;2022-10-16T12:42:40;94316.69;;;22.85;55.77
39739;BME280;25422;48.286;8.484;2022-10-16T12:45:29;94317.34;;;22.17;59.03
39739;BME280;25422;48.286;8.484;2022-10-16T12:47:57;94313.66;;;21.89;60.33
39739;BME280;25422;48.286;8.484;2022-10-16T12:50:35;94318.38;;;21.23;64.85
39739;BME280;25422;48.286;8.484;2022-10-16T12:53:03;94320.44;;;20.85;74.54
39739;BME280;25422;48.286;8.484;2022-10-16T12:55:41;94318.47;;;20.93;75.38
39739;BME280;25422;48.286;8.484;2022-10-16T13:00:57;94314.88;;;20.75;77.56
39739;BME280;25422;48.286;8.484;2022-10-16T13:03:33;94321.75;;;20.52;81.33
39739;BME280;25422;48.286;8.484;2022-10-16T13:08:48;94328.31;;;20.38;81.19
39739;BME280;25422;48.286;8.484;2022-10-16T13:20:22;94317.31;;;20.77;77.62
39739;BME280;25422;48.286;8.484;2022-10-16T13:23:26;94324.00;;;20.79;75.68
39739;BME280;25422;48.286;8.484;2022-10-16T13:26:06;94312.59;;;20.91;69.65
39739;BME280;25422;48.286;8.484;2022-10-16T13:28:39;94318.25;;;20.82;73.56
39739;BME280;25422;48.286;8.484;2022-10-16T13:31:04;94319.78;;;21.14;68.88
39739;BME280;25422;48.286;8.484;2022-10-16T13:33:33;94313.50;;;21.32;64.10
39739;BME280;25422;48.286;8.484;2022-10-16T13:36:00;94308.97;;;21.32;64.06
39739;BME280;25422;48.286;8.484;2022-10-16T13:38:31;94318.09;;;21.72;62.12
39739;BME280;25422;48.286;8.484;2022-10-16T13:41:13;94308.28;;;21.49;62.40
39739;BME280;25422;48.286;8.484;2022-10-16T13:46:12;94313.63;;;21.13;62.98
39739;BME280;25422;48.286;8.484;2022-10-16T13:48:38;94310.16;;;21.13;64.75
39739;BME280;25422;48.286;8.484;2022-10-16T13:51:11;94313.19;;;21.16;64.27
39739;BME280;25422;48.286;8.484;2022-10-16T13:53:37;94310.72;;;21.50;63.29
39739;BME280;25422;48.286;8.484;2022-10-16T13:56:05;94316.72;;;21.69;61.12
39739;BME280;25422;48.286;8.484;2022-10-16T13:58:31;94319.44;;;21.86;60.64
39739;BME280;25422;48.286;8.484;2022-10-16T14:00:59;94319.13;;;21.83;62.26
39739;BME280;25422;48.286;8.484;2022-10-16T14:03:26;94326.41;;;21.76;61.73
39739;BME280;25422;48.286;8.484;2022-10-16T14:06:03;94317.72;;;21.80;62.38
39739;BME280;25422;48.286;8.484;2022-10-16T14:08:31;94328.25;;;21.87;60.69
39739;BME280;25422;48.286;8.484;2022-10-16T14:10:59;94322.31;;;21.97;61.09
39739;BME280;25422;48.286;8.484;2022-10-16T14:13:37;94325.25;;;21.83;61.34